Shalalth, Canada
Current Conditions -  °F | °C
As of 6:00 AM on Monday 20 Oct 2014 (Local Time) from CYIN Reporting Station
Overcast Overcast  
Wind Chill: 10°   Ceiling: 22000
Heat Index: 10°   Visibility: 9mi
Dew Point:   Wind: 13mph
Humidity: 71%   Direction: 140°SE
Pressure: 29.6"   Gusts: NA
Location:  50.73°N, 122.23°W
Report Text: CYIN 201300Z AUTO 14011KT 110V180 9SM FEW190 OVC220 10/05 A2960 RMK SLP016 DENSITY ALT 4300FT
Loading
Personal Weather Stations






























Interactive Weather Map
Tropical Storm Tracking
New forecast layout! Learn more

10-Day Weather Forecast

Advertisements
Track Severe Weather on mobile